Portada
METAR-TAF:

METAR-TAF

Aeropuertos :

Base Aérea de Almagro

Almagro, España

latitud: 38-57-11N, longitud: 3-44-29W, altitud: 629 m

Observación

El informe se hizo hace 37 minutos, a las 20:00 UTC
Viento 3 kt del oeste
Temperatura 19°C
Humedad 56%
Presión 1021 hPa
Visibilidad 10 km o más
sin nubes por debajo de 1500 m y sin presencia de cumulonimbus.

METAR: LEAO 202000Z 26003KT CAVOK 19/10 Q1021

Hora: 22:37 (20:37 UTC)

Pronóstico

El informe se hizo hace 37 minutos, a las 20:00 UTC
Pronóstico válido del 20 a las 21 UTC al 21 a las 21 UTC
Viento 5 kt del oeste-suroeste
Visibilidad 10 km o más
sin nubes por debajo de 1500 m y sin presencia de cumulonimbus.
Probabilidad 30% :
Temporalmente
del 21 a las 06 UTC al 21 a las 08 UTC
Visibilidad: 2500 m
neblina
Temporalmente
del 21 a las 13 UTC al 21 a las 21 UTC
Viento 10 kt del oeste

TAF: LEAO 202000Z 2021/2121 25005KT CAVOK TX23/2115Z TN13/2106Z PROB30 TEMPO 2106/2108 2500 BR TEMPO 2113/2121 26010KT

Observaciones y pronósticos meteorológicos de más de 4000 aeropuertos (mensajes METAR y TAF).

Los puntos amarillos y rojos representan las estaciones disponibles.

Ponga el ratón en el punto deseado para ver el nombre de la estación.

Haga clic para ver las observaciones y los pronósticos meteorológicos.

Para cambiar el mapa : haga clic en los botones verdes con una cruz de color negro para hacer un zoom, en el botón verde con un guión para alejar o en las flechas verdes para mapas adyacentes.


METAR-TAF: